sensor_id;sensor_type;location;lat;lon;timestamp;pressure;altitude;pressure_sealevel;temperature;humidity
27334;BME280;14817;57.104;-2.094;2022-12-18T00:01:44;100682.75;;;-1.00;100.00
27334;BME280;14817;57.104;-2.094;2022-12-18T00:04:20;100681.88;;;-1.00;100.00
27334;BME280;14817;57.104;-2.094;2022-12-18T00:06:47;100667.97;;;-1.03;100.00
27334;BME280;14817;57.104;-2.094;2022-12-18T00:09:14;100668.91;;;-0.86;100.00
27334;BME280;14817;57.104;-2.094;2022-12-18T00:11:41;100674.66;;;-0.60;100.00
27334;BME280;14817;57.104;-2.094;2022-12-18T00:14:09;100682.53;;;-0.60;100.00
27334;BME280;14817;57.104;-2.094;2022-12-18T00:16:37;100687.19;;;-0.66;100.00
27334;BME280;14817;57.104;-2.094;2022-12-18T00:19:04;100684.47;;;-0.82;100.00
27334;BME280;14817;57.104;-2.094;2022-12-18T00:21:32;100699.88;;;-0.74;100.00
27334;BME280;14817;57.104;-2.094;2022-12-18T00:23:59;100697.22;;;-0.91;100.00
27334;BME280;14817;57.104;-2.094;2022-12-18T00:26:30;100705.06;;;-1.09;100.00
27334;BME280;14817;57.104;-2.094;2022-12-18T00:29:08;100703.38;;;-0.92;100.00
27334;BME280;14817;57.104;-2.094;2022-12-18T00:31:37;100715.53;;;-0.90;100.00
27334;BME280;14817;57.104;-2.094;2022-12-18T00:34:04;100716.44;;;-1.08;100.00
27334;BME280;14817;57.104;-2.094;2022-12-18T00:36:34;100707.00;;;-1.12;100.00
27334;BME280;14817;57.104;-2.094;2022-12-18T00:39:04;100709.59;;;-0.93;100.00
27334;BME280;14817;57.104;-2.094;2022-12-18T00:41:32;100708.53;;;-0.89;100.00
27334;BME280;14817;57.104;-2.094;2022-12-18T00:44:34;100705.25;;;-0.94;100.00
27334;BME280;14817;57.104;-2.094;2022-12-18T00:47:01;100713.75;;;-1.07;100.00
27334;BME280;14817;57.104;-2.094;2022-12-18T00:49:28;100706.47;;;-1.01;100.00
27334;BME280;14817;57.104;-2.094;2022-12-18T00:51:55;100711.81;;;-0.86;100.00
27334;BME280;14817;57.104;-2.094;2022-12-18T00:54:21;100714.91;;;-0.95;100.00
27334;BME280;14817;57.104;-2.094;2022-12-18T00:56:49;100715.25;;;-1.03;100.00
27334;BME280;14817;57.104;-2.094;2022-12-18T00:59:17;100710.88;;;-1.02;100.00
27334;BME280;14817;57.104;-2.094;2022-12-18T01:01:45;100707.34;;;-1.20;100.00
27334;BME280;14817;57.104;-2.094;2022-12-18T01:04:13;100712.47;;;-1.36;100.00
27334;BME280;14817;57.104;-2.094;2022-12-18T01:06:40;100712.47;;;-1.55;100.00
27334;BME280;14817;57.104;-2.094;2022-12-18T01:09:07;100721.69;;;-1.65;100.00
27334;BME280;14817;57.104;-2.094;2022-12-18T01:11:35;100720.34;;;-1.74;100.00
27334;BME280;14817;57.104;-2.094;2022-12-18T01:14:03;100715.41;;;-1.81;100.00
27334;BME280;14817;57.104;-2.094;2022-12-18T01:16:30;100711.81;;;-1.79;100.00
27334;BME280;14817;57.104;-2.094;2022-12-18T01:18:57;100711.09;;;-1.82;100.00
27334;BME280;14817;57.104;-2.094;2022-12-18T01:21:26;100716.50;;;-1.86;100.00
27334;BME280;14817;57.104;-2.094;2022-12-18T01:23:54;100708.31;;;-1.79;100.00
27334;BME280;14817;57.104;-2.094;2022-12-18T01:26:23;100716.13;;;-1.78;100.00
27334;BME280;14817;57.104;-2.094;2022-12-18T01:28:50;100714.44;;;-1.79;100.00
27334;BME280;14817;57.104;-2.094;2022-12-18T01:31:26;100720.66;;;-1.81;100.00
27334;BME280;14817;57.104;-2.094;2022-12-18T01:33:56;100720.53;;;-1.78;100.00
27334;BME280;14817;57.104;-2.094;2022-12-18T01:36:30;100720.41;;;-1.56;100.00
27334;BME280;14817;57.104;-2.094;2022-12-18T01:39:24;100714.38;;;-1.58;100.00
27334;BME280;14817;57.104;-2.094;2022-12-18T01:41:51;100719.22;;;-1.68;100.00
27334;BME280;14817;57.104;-2.094;2022-12-18T01:44:56;100712.59;;;-1.77;100.00
27334;BME280;14817;57.104;-2.094;2022-12-18T01:47:25;100708.31;;;-1.79;100.00
27334;BME280;14817;57.104;-2.094;2022-12-18T01:49:53;100703.88;;;-1.58;100.00
27334;BME280;14817;57.104;-2.094;2022-12-18T01:52:21;100709.91;;;-1.75;100.00
27334;BME280;14817;57.104;-2.094;2022-12-18T01:54:50;100706.97;;;-1.88;100.00
27334;BME280;14817;57.104;-2.094;2022-12-18T01:57:18;100698.41;;;-1.54;100.00
27334;BME280;14817;57.104;-2.094;2022-12-18T01:59:49;100706.47;;;-1.77;100.00
27334;BME280;14817;57.104;-2.094;2022-12-18T02:02:17;100706.06;;;-1.87;100.00
27334;BME280;14817;57.104;-2.094;2022-12-18T02:04:44;100712.22;;;-1.88;100.00
27334;BME280;14817;57.104;-2.094;2022-12-18T02:10:29;100717.50;;;-1.69;100.00
27334;BME280;14817;57.104;-2.094;2022-12-18T02:18:41;100724.25;;;-2.03;100.00
27334;BME280;14817;57.104;-2.094;2022-12-18T02:21:42;100726.63;;;-2.17;100.00
27334;BME280;14817;57.104;-2.094;2022-12-18T02:27:03;100726.16;;;-2.07;100.00
27334;BME280;14817;57.104;-2.094;2022-12-18T02:29:49;100729.31;;;-2.19;100.00
27334;BME280;14817;57.104;-2.094;2022-12-18T02:32:30;100733.47;;;-2.13;100.00
27334;BME280;14817;57.104;-2.094;2022-12-18T02:34:58;100729.38;;;-2.20;100.00
27334;BME280;14817;57.104;-2.094;2022-12-18T02:37:28;100727.22;;;-2.31;100.00
27334;BME280;14817;57.104;-2.094;2022-12-18T02:40:00;100724.78;;;-2.36;100.00
27334;BME280;14817;57.104;-2.094;2022-12-18T02:42:30;100724.78;;;-2.36;100.00
27334;BME280;14817;57.104;-2.094;2022-12-18T02:44:58;100724.78;;;-2.36;100.00
27334;BME280;14817;57.104;-2.094;2022-12-18T02:47:33;100728.19;;;-2.34;100.00
27334;BME280;14817;57.104;-2.094;2022-12-18T02:50:26;100726.69;;;-2.39;100.00
27334;BME280;14817;57.104;-2.094;2022-12-18T02:53:24;100726.13;;;-2.48;100.00
27334;BME280;14817;57.104;-2.094;2022-12-18T02:56:06;100741.16;;;-2.51;100.00
27334;BME280;14817;57.104;-2.094;2022-12-18T03:04:21;100737.28;;;-2.63;100.00
27334;BME280;14817;57.104;-2.094;2022-12-18T03:06:55;100734.97;;;-2.71;100.00
27334;BME280;14817;57.104;-2.094;2022-12-18T03:09:35;100733.41;;;-2.75;100.00
27334;BME280;14817;57.104;-2.094;2022-12-18T03:12:14;100741.56;;;-2.82;100.00
27334;BME280;14817;57.104;-2.094;2022-12-18T03:17:33;100739.25;;;-2.90;100.00
27334;BME280;14817;57.104;-2.094;2022-12-18T03:20:09;100737.31;;;-2.85;100.00
27334;BME280;14817;57.104;-2.094;2022-12-18T03:22:40;100743.94;;;-2.76;100.00
27334;BME280;14817;57.104;-2.094;2022-12-18T03:25:11;100740.88;;;-2.65;100.00
27334;BME280;14817;57.104;-2.094;2022-12-18T03:27:45;100737.84;;;-2.77;100.00
27334;BME280;14817;57.104;-2.094;2022-12-18T03:30:15;100731.13;;;-2.84;100.00
27334;BME280;14817;57.104;-2.094;2022-12-18T03:33:00;100740.72;;;-2.83;100.00
27334;BME280;14817;57.104;-2.094;2022-12-18T03:35:33;100733.59;;;-2.79;100.00
27334;BME280;14817;57.104;-2.094;2022-12-18T03:38:00;100738.81;;;-2.57;100.00
27334;BME280;14817;57.104;-2.094;2022-12-18T03:43:18;100732.59;;;-2.77;100.00
27334;BME280;14817;57.104;-2.094;2022-12-18T03:45:52;100736.38;;;-2.84;100.00
27334;BME280;14817;57.104;-2.094;2022-12-18T03:48:33;100740.03;;;-2.88;100.00
27334;BME280;14817;57.104;-2.094;2022-12-18T03:51:13;100736.56;;;-2.89;100.00
27334;BME280;14817;57.104;-2.094;2022-12-18T03:54:03;100737.59;;;-2.93;100.00
27334;BME280;14817;57.104;-2.094;2022-12-18T03:56:40;100737.00;;;-2.99;100.00
27334;BME280;14817;57.104;-2.094;2022-12-18T03:59:12;100730.47;;;-2.89;100.00
27334;BME280;14817;57.104;-2.094;2022-12-18T04:01:46;100734.78;;;-2.88;100.00
27334;BME280;14817;57.104;-2.094;2022-12-18T04:04:16;100734.97;;;-2.93;100.00
27334;BME280;14817;57.104;-2.094;2022-12-18T04:06:46;100743.25;;;-3.03;100.00
27334;BME280;14817;57.104;-2.094;2022-12-18T04:09:18;100757.16;;;-3.01;100.00
27334;BME280;14817;57.104;-2.094;2022-12-18T04:11:47;100765.44;;;-3.12;100.00
27334;BME280;14817;57.104;-2.094;2022-12-18T04:14:16;100765.63;;;-3.17;100.00
27334;BME280;14817;57.104;-2.094;2022-12-18T04:16:47;100761.69;;;-3.05;100.00
27334;BME280;14817;57.104;-2.094;2022-12-18T04:19:16;100770.81;;;-2.93;100.00
27334;BME280;14817;57.104;-2.094;2022-12-18T04:21:46;100783.56;;;-2.62;100.00
27334;BME280;14817;57.104;-2.094;2022-12-18T04:24:13;100781.16;;;-2.46;100.00
27334;BME280;14817;57.104;-2.094;2022-12-18T04:26:48;100767.88;;;-2.21;100.00
27334;BME280;14817;57.104;-2.094;2022-12-18T04:29:17;100771.38;;;-2.00;100.00
27334;BME280;14817;57.104;-2.094;2022-12-18T04:31:44;100762.66;;;-2.00;100.00
27334;BME280;14817;57.104;-2.094;2022-12-18T04:34:11;100764.81;;;-1.90;100.00
27334;BME280;14817;57.104;-2.094;2022-12-18T04:36:46;100757.28;;;-1.78;100.00
27334;BME280;14817;57.104;-2.094;2022-12-18T04:39:14;100755.81;;;-1.65;100.00
27334;BME280;14817;57.104;-2.094;2022-12-18T04:41:41;100756.19;;;-1.54;100.00
27334;BME280;14817;57.104;-2.094;2022-12-18T04:44:08;100757.91;;;-1.53;100.00
27334;BME280;14817;57.104;-2.094;2022-12-18T04:46:35;100752.31;;;-1.45;100.00
27334;BME280;14817;57.104;-2.094;2022-12-18T04:49:02;100761.38;;;-1.52;100.00
27334;BME280;14817;57.104;-2.094;2022-12-18T04:51:29;100765.56;;;-1.48;100.00
27334;BME280;14817;57.104;-2.094;2022-12-18T04:53:55;100751.81;;;-1.53;100.00
27334;BME280;14817;57.104;-2.094;2022-12-18T04:56:22;100751.72;;;-1.52;100.00
27334;BME280;14817;57.104;-2.094;2022-12-18T04:58:49;100750.25;;;-1.57;100.00
27334;BME280;14817;57.104;-2.094;2022-12-18T05:01:17;100748.53;;;-1.58;100.00
27334;BME280;14817;57.104;-2.094;2022-12-18T05:03:44;100759.25;;;-1.44;100.00
27334;BME280;14817;57.104;-2.094;2022-12-18T05:06:11;100748.53;;;-1.39;100.00
27334;BME280;14817;57.104;-2.094;2022-12-18T05:08:38;100738.03;;;-1.39;100.00
27334;BME280;14817;57.104;-2.094;2022-12-18T05:11:10;100730.66;;;-1.31;100.00
27334;BME280;14817;57.104;-2.094;2022-12-18T05:13:38;100725.38;;;-1.12;100.00
27334;BME280;14817;57.104;-2.094;2022-12-18T05:16:06;100721.91;;;-1.13;100.00
27334;BME280;14817;57.104;-2.094;2022-12-18T05:18:33;100710.50;;;-0.94;100.00
27334;BME280;14817;57.104;-2.094;2022-12-18T05:21:00;100711.78;;;-1.03;100.00
27334;BME280;14817;57.104;-2.094;2022-12-18T05:23:27;100702.78;;;-0.97;100.00
27334;BME280;14817;57.104;-2.094;2022-12-18T05:25:59;100695.34;;;-1.07;100.00
27334;BME280;14817;57.104;-2.094;2022-12-18T05:28:28;100694.56;;;-1.09;100.00
27334;BME280;14817;57.104;-2.094;2022-12-18T05:30:58;100689.59;;;-1.15;100.00
27334;BME280;14817;57.104;-2.094;2022-12-18T05:33:28;100688.81;;;-1.17;100.00
27334;BME280;14817;57.104;-2.094;2022-12-18T05:35:58;100690.66;;;-0.83;100.00
27334;BME280;14817;57.104;-2.094;2022-12-18T05:38:41;100678.97;;;-0.77;100.00
27334;BME280;14817;57.104;-2.094;2022-12-18T05:41:09;100683.63;;;-0.82;100.00
27334;BME280;14817;57.104;-2.094;2022-12-18T05:43:37;100686.84;;;-0.77;100.00
27334;BME280;14817;57.104;-2.094;2022-12-18T05:46:11;100686.16;;;-0.98;100.00
27334;BME280;14817;57.104;-2.094;2022-12-18T05:48:38;100686.28;;;-1.01;100.00
27334;BME280;14817;57.104;-2.094;2022-12-18T05:51:11;100691.09;;;-0.92;100.00
27334;BME280;14817;57.104;-2.094;2022-12-18T05:53:38;100687.47;;;-0.89;100.00
27334;BME280;14817;57.104;-2.094;2022-12-18T05:56:08;100683.31;;;-0.93;100.00
27334;BME280;14817;57.104;-2.094;2022-12-18T05:58:35;100692.97;;;-0.94;100.00
27334;BME280;14817;57.104;-2.094;2022-12-18T06:03:38;100682.47;;;-0.94;100.00
27334;BME280;14817;57.104;-2.094;2022-12-18T06:06:35;100684.50;;;-1.00;100.00
27334;BME280;14817;57.104;-2.094;2022-12-18T06:09:04;100678.81;;;-0.91;100.00
27334;BME280;14817;57.104;-2.094;2022-12-18T06:11:37;100675.03;;;-0.86;100.00
27334;BME280;14817;57.104;-2.094;2022-12-18T06:14:05;100679.63;;;-0.72;100.00
27334;BME280;14817;57.104;-2.094;2022-12-18T06:16:32;100675.66;;;-0.63;100.00
27334;BME280;14817;57.104;-2.094;2022-12-18T06:19:04;100682.53;;;-0.43;100.00
27334;BME280;14817;57.104;-2.094;2022-12-18T06:21:31;100679.13;;;-0.45;100.00
27334;BME280;14817;57.104;-2.094;2022-12-18T06:23:59;100679.59;;;-0.54;100.00
27334;BME280;14817;57.104;-2.094;2022-12-18T06:26:27;100681.41;;;-0.55;100.00
27334;BME280;14817;57.104;-2.094;2022-12-18T06:28:54;100679.91;;;-0.60;100.00
27334;BME280;14817;57.104;-2.094;2022-12-18T06:31:22;100681.00;;;-0.65;100.00
27334;BME280;14817;57.104;-2.094;2022-12-18T06:33:50;100684.56;;;-0.66;100.00
27334;BME280;14817;57.104;-2.094;2022-12-18T06:36:17;100683.97;;;-0.53;100.00
27334;BME280;14817;57.104;-2.094;2022-12-18T06:38:44;100672.66;;;-0.55;100.00
27334;BME280;14817;57.104;-2.094;2022-12-18T06:41:13;100670.16;;;-0.58;100.00
27334;BME280;14817;57.104;-2.094;2022-12-18T06:43:40;100680.63;;;-0.57;100.00
27334;BME280;14817;57.104;-2.094;2022-12-18T06:46:08;100674.66;;;-0.60;100.00
27334;BME280;14817;57.104;-2.094;2022-12-18T06:48:35;100668.25;;;-0.55;100.00
27334;BME280;14817;57.104;-2.094;2022-12-18T06:51:03;100667.41;;;-0.55;100.00
27334;BME280;14817;57.104;-2.094;2022-12-18T06:53:31;100669.94;;;-0.54;100.00
27334;BME280;14817;57.104;-2.094;2022-12-18T06:56:06;100678.06;;;-0.58;100.00
27334;BME280;14817;57.104;-2.094;2022-12-18T06:58:36;100676.13;;;-0.55;100.00
27334;BME280;14817;57.104;-2.094;2022-12-18T07:01:07;100668.38;;;-0.58;100.00
27334;BME280;14817;57.104;-2.094;2022-12-18T07:03:40;100675.44;;;-0.58;100.00
27334;BME280;14817;57.104;-2.094;2022-12-18T07:06:16;100672.00;;;-0.43;100.00
27334;BME280;14817;57.104;-2.094;2022-12-18T07:08:43;100673.34;;;-0.52;100.00
27334;BME280;14817;57.104;-2.094;2022-12-18T07:11:10;100675.66;;;-0.46;100.00
27334;BME280;14817;57.104;-2.094;2022-12-18T07:13:37;100680.63;;;-0.39;100.00
27334;BME280;14817;57.104;-2.094;2022-12-18T07:16:10;100682.28;;;-0.38;100.00
27334;BME280;14817;57.104;-2.094;2022-12-18T07:18:48;100686.88;;;-0.25;100.00
27334;BME280;14817;57.104;-2.094;2022-12-18T07:21:17;100685.03;;;-0.07;100.00
27334;BME280;14817;57.104;-2.094;2022-12-18T07:23:44;100683.91;;;-0.18;100.00
27334;BME280;14817;57.104;-2.094;2022-12-18T07:26:17;100684.72;;;-0.34;100.00
27334;BME280;14817;57.104;-2.094;2022-12-18T07:28:44;100677.28;;;-0.43;100.00
27334;BME280;14817;57.104;-2.094;2022-12-18T07:31:13;100678.41;;;-0.14;100.00
27334;BME280;14817;57.104;-2.094;2022-12-18T07:33:41;100680.72;;;0.26;100.00
27334;BME280;14817;57.104;-2.094;2022-12-18T07:36:10;100671.69;;;0.30;100.00
27334;BME280;14817;57.104;-2.094;2022-12-18T07:38:37;100670.88;;;0.45;100.00
27334;BME280;14817;57.104;-2.094;2022-12-18T07:41:09;100675.97;;;0.80;100.00
27334;BME280;14817;57.104;-2.094;2022-12-18T07:43:36;100655.66;;;0.82;100.00
27334;BME280;14817;57.104;-2.094;2022-12-18T07:46:05;100653.25;;;0.93;100.00
27334;BME280;14817;57.104;-2.094;2022-12-18T07:48:32;100649.97;;;0.90;100.00
27334;BME280;14817;57.104;-2.094;2022-12-18T07:51:03;100642.22;;;1.17;100.00
27334;BME280;14817;57.104;-2.094;2022-12-18T07:53:31;100623.19;;;1.12;100.00
27334;BME280;14817;57.104;-2.094;2022-12-18T07:56:01;100621.09;;;1.02;100.00
27334;BME280;14817;57.104;-2.094;2022-12-18T07:58:51;100609.41;;;1.07;100.00
27334;BME280;14817;57.104;-2.094;2022-12-18T08:01:18;100607.59;;;1.23;100.00
27334;BME280;14817;57.104;-2.094;2022-12-18T08:03:46;100610.56;;;1.61;100.00
27334;BME280;14817;57.104;-2.094;2022-12-18T08:06:13;100617.66;;;1.90;100.00
27334;BME280;14817;57.104;-2.094;2022-12-18T08:08:40;100621.81;;;1.94;100.00
27334;BME280;14817;57.104;-2.094;2022-12-18T08:11:08;100619.00;;;1.97;100.00
27334;BME280;14817;57.104;-2.094;2022-12-18T08:13:35;100615.19;;;2.15;100.00
27334;BME280;14817;57.104;-2.094;2022-12-18T08:16:06;100624.16;;;2.13;100.00
27334;BME280;14817;57.104;-2.094;2022-12-18T08:18:34;100639.38;;;2.09;100.00
27334;BME280;14817;57.104;-2.094;2022-12-18T08:23:39;100628.22;;;2.04;100.00
27334;BME280;14817;57.104;-2.094;2022-12-18T08:26:10;100617.25;;;2.24;100.00
27334;BME280;14817;57.104;-2.094;2022-12-18T08:28:37;100612.16;;;2.21;100.00
27334;BME280;14817;57.104;-2.094;2022-12-18T08:31:04;100595.84;;;2.15;100.00
27334;BME280;14817;57.104;-2.094;2022-12-18T08:33:31;100580.38;;;2.23;100.00
27334;BME280;14817;57.104;-2.094;2022-12-18T08:36:00;100592.88;;;2.34;100.00
27334;BME280;14817;57.104;-2.094;2022-12-18T08:38:27;100587.75;;;2.45;100.00
27334;BME280;14817;57.104;-2.094;2022-12-18T08:41:02;100582.47;;;2.45;100.00
27334;BME280;14817;57.104;-2.094;2022-12-18T08:43:29;100585.41;;;2.40;100.00
27334;BME280;14817;57.104;-2.094;2022-12-18T08:46:15;100584.94;;;2.48;100.00
27334;BME280;14817;57.104;-2.094;2022-12-18T08:48:42;100581.28;;;2.63;100.00
27334;BME280;14817;57.104;-2.094;2022-12-18T08:51:09;100578.03;;;2.73;100.00
27334;BME280;14817;57.104;-2.094;2022-12-18T08:53:36;100581.34;;;2.76;100.00
27334;BME280;14817;57.104;-2.094;2022-12-18T08:56:06;100577.47;;;2.95;100.00
27334;BME280;14817;57.104;-2.094;2022-12-18T08:58:33;100584.44;;;2.96;100.00
27334;BME280;14817;57.104;-2.094;2022-12-18T09:01:01;100567.44;;;3.13;100.00
27334;BME280;14817;57.104;-2.094;2022-12-18T09:03:28;100577.63;;;3.19;100.00
27334;BME280;14817;57.104;-2.094;2022-12-18T09:05:55;100578.47;;;3.19;100.00
27334;BME280;14817;57.104;-2.094;2022-12-18T09:08:22;100574.75;;;3.22;100.00
27334;BME280;14817;57.104;-2.094;2022-12-18T09:10:51;100568.22;;;3.27;100.00
27334;BME280;14817;57.104;-2.094;2022-12-18T09:13:18;100561.44;;;3.36;100.00
27334;BME280;14817;57.104;-2.094;2022-12-18T09:15:48;100547.47;;;3.34;100.00
27334;BME280;14817;57.104;-2.094;2022-12-18T09:18:17;100544.72;;;3.36;100.00
27334;BME280;14817;57.104;-2.094;2022-12-18T09:20:44;100550.13;;;3.34;100.00
27334;BME280;14817;57.104;-2.094;2022-12-18T09:23:12;100555.41;;;3.47;100.00
27334;BME280;14817;57.104;-2.094;2022-12-18T09:25:39;100546.81;;;3.43;100.00
27334;BME280;14817;57.104;-2.094;2022-12-18T09:28:14;100544.50;;;3.52;100.00
27334;BME280;14817;57.104;-2.094;2022-12-18T09:30:45;100548.22;;;3.49;100.00
27334;BME280;14817;57.104;-2.094;2022-12-18T09:33:12;100551.91;;;3.46;100.00
27334;BME280;14817;57.104;-2.094;2022-12-18T09:35:41;100536.97;;;3.58;100.00
27334;BME280;14817;57.104;-2.094;2022-12-18T09:38:12;100548.09;;;3.51;100.00
27334;BME280;14817;57.104;-2.094;2022-12-18T09:40:43;100551.50;;;3.53;100.00
27334;BME280;14817;57.104;-2.094;2022-12-18T09:43:18;100544.41;;;3.53;100.00
27334;BME280;14817;57.104;-2.094;2022-12-18T09:45:49;100536.56;;;3.52;100.00
27334;BME280;14817;57.104;-2.094;2022-12-18T09:48:27;100534.84;;;3.63;100.00
27334;BME280;14817;57.104;-2.094;2022-12-18T09:51:00;100536.88;;;3.60;100.00
27334;BME280;14817;57.104;-2.094;2022-12-18T09:53:30;100535.59;;;3.78;100.00
27334;BME280;14817;57.104;-2.094;2022-12-18T09:56:00;100523.41;;;3.76;100.00
27334;BME280;14817;57.104;-2.094;2022-12-18T09:58:33;100527.63;;;3.78;100.00
27334;BME280;14817;57.104;-2.094;2022-12-18T10:01:10;100536.00;;;3.72;100.00
27334;BME280;14817;57.104;-2.094;2022-12-18T10:03:37;100530.06;;;3.81;100.00
27334;BME280;14817;57.104;-2.094;2022-12-18T10:06:13;100513.56;;;3.78;100.00
27334;BME280;14817;57.104;-2.094;2022-12-18T10:11:43;100505.47;;;3.79;100.00
27334;BME280;14817;57.104;-2.094;2022-12-18T10:14:19;100509.50;;;3.85;100.00
27334;BME280;14817;57.104;-2.094;2022-12-18T10:17:00;100507.47;;;4.01;100.00
27334;BME280;14817;57.104;-2.094;2022-12-18T10:19:42;100514.09;;;4.07;100.00
27334;BME280;14817;57.104;-2.094;2022-12-18T10:25:01;100510.38;;;4.09;100.00
27334;BME280;14817;57.104;-2.094;2022-12-18T10:27:30;100513.25;;;4.06;100.00
27334;BME280;14817;57.104;-2.094;2022-12-18T10:29:59;100499.22;;;4.17;100.00
27334;BME280;14817;57.104;-2.094;2022-12-18T10:32:30;100478.31;;;4.25;100.00
27334;BME280;14817;57.104;-2.094;2022-12-18T10:34:57;100473.06;;;4.37;100.00
27334;BME280;14817;57.104;-2.094;2022-12-18T10:37:28;100462.00;;;4.43;100.00
27334;BME280;14817;57.104;-2.094;2022-12-18T10:40:14;100465.09;;;4.37;100.00
27334;BME280;14817;57.104;-2.094;2022-12-18T10:43:03;100448.97;;;4.40;100.00
27334;BME280;14817;57.104;-2.094;2022-12-18T10:45:30;100441.63;;;4.43;100.00
27334;BME280;14817;57.104;-2.094;2022-12-18T10:47:58;100442.34;;;4.45;100.00
27334;BME280;14817;57.104;-2.094;2022-12-18T10:50:32;100434.13;;;4.37;100.00
27334;BME280;14817;57.104;-2.094;2022-12-18T10:53:24;100439.09;;;4.42;100.00
27334;BME280;14817;57.104;-2.094;2022-12-18T10:55:54;100428.44;;;4.55;100.00
27334;BME280;14817;57.104;-2.094;2022-12-18T11:01:06;100429.75;;;4.60;100.00
27334;BME280;14817;57.104;-2.094;2022-12-18T11:03:45;100425.78;;;4.66;100.00
27334;BME280;14817;57.104;-2.094;2022-12-18T11:08:42;100419.50;;;4.67;100.00
27334;BME280;14817;57.104;-2.094;2022-12-18T11:11:21;100416.03;;;4.78;100.00
27334;BME280;14817;57.104;-2.094;2022-12-18T11:14:06;100404.84;;;4.74;100.00
27334;BME280;14817;57.104;-2.094;2022-12-18T11:16:49;100386.13;;;4.76;100.00
27334;BME280;14817;57.104;-2.094;2022-12-18T11:19:38;100376.84;;;4.81;100.00
27334;BME280;14817;57.104;-2.094;2022-12-18T11:22:28;100381.56;;;4.78;100.00
27334;BME280;14817;57.104;-2.094;2022-12-18T11:25:07;100374.94;;;4.72;100.00
27334;BME280;14817;57.104;-2.094;2022-12-18T11:28:08;100373.00;;;4.74;100.00
27334;BME280;14817;57.104;-2.094;2022-12-18T11:33:37;100360.94;;;4.93;100.00
27334;BME280;14817;57.104;-2.094;2022-12-18T11:36:32;100359.25;;;4.80;100.00
27334;BME280;14817;57.104;-2.094;2022-12-18T11:39:09;100346.38;;;4.87;98.58
27334;BME280;14817;57.104;-2.094;2022-12-18T11:41:49;100337.31;;;4.89;98.01
27334;BME280;14817;57.104;-2.094;2022-12-18T11:47:43;100327.53;;;4.90;98.25
27334;BME280;14817;57.104;-2.094;2022-12-18T11:50:19;100325.38;;;4.95;97.62
27334;BME280;14817;57.104;-2.094;2022-12-18T11:52:48;100324.50;;;5.17;99.07
27334;BME280;14817;57.104;-2.094;2022-12-18T12:12:39;100279.06;;;4.88;88.89
27334;BME280;14817;57.104;-2.094;2022-12-18T12:15:36;100267.50;;;4.89;88.79
27334;BME280;14817;57.104;-2.094;2022-12-18T12:18:19;100256.72;;;4.90;85.95
27334;BME280;14817;57.104;-2.094;2022-12-18T12:20:59;100250.97;;;4.85;85.27
27334;BME280;14817;57.104;-2.094;2022-12-18T12:26:06;100237.56;;;4.87;87.49
27334;BME280;14817;57.104;-2.094;2022-12-18T12:29:01;100246.72;;;4.94;88.31
27334;BME280;14817;57.104;-2.094;2022-12-18T12:37:24;100225.03;;;4.89;90.06
27334;BME280;14817;57.104;-2.094;2022-12-18T12:39:56;100220.44;;;4.91;91.78
27334;BME280;14817;57.104;-2.094;2022-12-18T12:42:37;100221.88;;;4.84;93.10
27334;BME280;14817;57.104;-2.094;2022-12-18T12:45:33;100220.44;;;4.80;94.52
27334;BME280;14817;57.104;-2.094;2022-12-18T12:48:02;100230.84;;;4.72;93.75
27334;BME280;14817;57.104;-2.094;2022-12-18T12:50:33;100212.28;;;4.72;94.26
27334;BME280;14817;57.104;-2.094;2022-12-18T12:53:01;100226.00;;;4.77;93.61
27334;BME280;14817;57.104;-2.094;2022-12-18T12:55:33;100207.66;;;4.74;92.75
27334;BME280;14817;57.104;-2.094;2022-12-18T12:58:15;100210.94;;;4.77;93.85
27334;BME280;14817;57.104;-2.094;2022-12-18T13:00:59;100203.09;;;4.76;94.35
27334;BME280;14817;57.104;-2.094;2022-12-18T13:08:57;100186.97;;;4.67;94.84
27334;BME280;14817;57.104;-2.094;2022-12-18T13:14:32;100181.16;;;4.62;94.29
27334;BME280;14817;57.104;-2.094;2022-12-18T13:20:05;100172.75;;;4.57;92.56
27334;BME280;14817;57.104;-2.094;2022-12-18T13:22:44;100168.16;;;4.59;91.54
27334;BME280;14817;57.104;-2.094;2022-12-18T13:28:10;100134.41;;;4.61;93.05
27334;BME280;14817;57.104;-2.094;2022-12-18T13:30:55;100137.44;;;4.57;93.41
27334;BME280;14817;57.104;-2.094;2022-12-18T13:38:37;100104.53;;;4.48;92.82
27334;BME280;14817;57.104;-2.094;2022-12-18T13:43:48;100099.38;;;4.46;89.92
27334;BME280;14817;57.104;-2.094;2022-12-18T13:46:23;100097.53;;;4.47;91.27
27334;BME280;14817;57.104;-2.094;2022-12-18T13:49:02;100101.53;;;4.41;89.79
27334;BME280;14817;57.104;-2.094;2022-12-18T13:51:32;100090.09;;;4.41;90.18
27334;BME280;14817;57.104;-2.094;2022-12-18T13:57:29;100096.59;;;4.37;87.72
27334;BME280;14817;57.104;-2.094;2022-12-18T13:59:57;100081.66;;;4.36;88.10
27334;BME280;14817;57.104;-2.094;2022-12-18T14:02:26;100082.72;;;4.33;88.44
27334;BME280;14817;57.104;-2.094;2022-12-18T14:04:54;100081.19;;;4.30;89.12
27334;BME280;14817;57.104;-2.094;2022-12-18T14:07:26;100078.78;;;4.27;89.98
27334;BME280;14817;57.104;-2.094;2022-12-18T14:09:59;100083.59;;;4.34;89.46
27334;BME280;14817;57.104;-2.094;2022-12-18T14:12:50;100071.06;;;4.24;89.08
27334;BME280;14817;57.104;-2.094;2022-12-18T14:15:43;100062.63;;;4.30;89.03
27334;BME280;14817;57.104;-2.094;2022-12-18T14:18:26;100046.72;;;4.30;89.64
27334;BME280;14817;57.104;-2.094;2022-12-18T14:20:59;100037.31;;;4.26;89.40
27334;BME280;14817;57.104;-2.094;2022-12-18T14:23:39;100036.84;;;4.33;88.67
27334;BME280;14817;57.104;-2.094;2022-12-18T16:02:47;99838.81;;;4.96;86.62
27334;BME280;14817;57.104;-2.094;2022-12-18T16:05:18;99840.22;;;5.00;87.42
27334;BME280;14817;57.104;-2.094;2022-12-18T16:07:46;99828.66;;;5.11;83.92
27334;BME280;14817;57.104;-2.094;2022-12-18T16:10:13;99807.56;;;5.09;81.95
27334;BME280;14817;57.104;-2.094;2022-12-18T16:12:41;99811.34;;;5.07;81.10
27334;BME280;14817;57.104;-2.094;2022-12-18T16:15:10;99804.91;;;5.09;80.57